Time;durP1;ratioP1;P1;durP2;ratioP2;P2;SDS_P1;SDS_P2;PMS_P1;PMS_P2;Temp;Humidity;BMP_temperature;BMP_pressure;BME280_temperature;BME280_humidity;BME280_pressure;Samples;Min_cycle;Max_cycle;Signal;HPM_P1;HPM_P2
2021/05/05 00:00:06;;;;;;;4.18;1.10;;;7.50;99.90;;;;;;4953098;28;20392;-52
2021/05/05 00:02:32;;;;;;;3.20;0.90;;;7.70;99.90;;;;;;4971343;28;20385;-52
2021/05/05 00:04:57;;;;;;;4.90;1.10;;;7.60;99.90;;;;;;4970093;28;20903;-52
2021/05/05 00:07:23;;;;;;;6.50;1.50;;;7.70;99.90;;;;;;4971319;28;20391;-52
2021/05/05 00:09:49;;;;;;;5.80;1.08;;;7.60;99.90;;;;;;4952880;28;20399;-52
2021/05/05 00:12:14;;;;;;;3.03;0.70;;;7.60;99.90;;;;;;4970958;28;20392;-52
2021/05/05 00:14:40;;;;;;;3.65;0.90;;;7.70;99.90;;;;;;4971039;28;20418;-57
2021/05/05 00:17:06;;;;;;;4.97;0.80;;;7.60;99.90;;;;;;4970434;28;20795;-52
2021/05/05 00:19:31;;;;;;;3.70;0.93;;;7.50;99.90;;;;;;4970947;28;20480;-52
2021/05/05 00:21:57;;;;;;;5.25;1.40;;;7.60;99.90;;;;;;4970250;28;20396;-52
2021/05/05 00:24:23;;;;;;;5.20;1.27;;;7.60;99.90;;;;;;4974268;28;20395;-52
2021/05/05 00:26:48;;;;;;;4.80;0.95;;;7.50;99.90;;;;;;4974011;28;20387;-52
2021/05/05 00:29:14;;;;;;;3.10;1.10;;;7.50;99.90;;;;;;4974209;28;20780;-51
2021/05/05 00:31:40;;;;;;;5.20;1.30;;;7.60;99.90;;;;;;4974596;28;20380;-52
2021/05/05 00:34:05;;;;;;;4.60;0.93;;;7.60;99.90;;;;;;4973290;28;20399;-52
2021/05/05 00:36:31;;;;;;;4.70;1.10;;;7.60;99.90;;;;;;4974129;28;20415;-51
2021/05/05 00:38:57;;;;;;;5.37;1.20;;;7.60;99.90;;;;;;4956312;28;20400;-52
2021/05/05 00:41:23;;;;;;;5.70;1.20;;;7.50;99.90;;;;;;4974238;28;20736;-52
2021/05/05 00:43:48;;;;;;;3.80;0.90;;;7.40;99.90;;;;;;4973719;28;20887;-52
2021/05/05 00:46:14;;;;;;;5.40;1.00;;;7.40;99.90;;;;;;4974048;28;20868;-52
2021/05/05 00:48:40;;;;;;;4.40;0.90;;;7.40;99.90;;;;;;4974320;28;20933;-52
2021/05/05 00:51:06;;;;;;;4.80;1.00;;;7.50;99.90;;;;;;4973562;28;20393;-52
2021/05/05 00:53:33;;;;;;;4.70;1.00;;;7.50;99.90;;;;;;4974303;28;20455;-52
2021/05/05 00:55:59;;;;;;;4.93;0.80;;;7.60;99.90;;;;;;4973161;28;20390;-52
2021/05/05 00:58:24;;;;;;;5.00;0.98;;;7.40;99.90;;;;;;4956645;28;21002;-51
2021/05/05 01:00:51;;;;;;;4.80;1.00;;;7.40;99.90;;;;;;4973055;28;20388;-52
2021/05/05 01:03:18;;;;;;;5.15;1.40;;;7.50;99.90;;;;;;4973717;28;20395;-52
2021/05/05 01:05:44;;;;;;;3.40;0.90;;;7.60;99.90;;;;;;4973483;28;20541;-56
2021/05/05 01:08:09;;;;;;;3.50;0.90;;;7.70;99.90;;;;;;4973386;28;20476;-52
2021/05/05 01:10:35;;;;;;;7.07;1.40;;;7.70;99.90;;;;;;4973919;28;20757;-51
2021/05/05 01:13:01;;;;;;;3.60;1.10;;;7.60;99.90;;;;;;4972958;28;20380;-56
2021/05/05 01:15:28;;;;;;;5.68;1.10;;;7.70;99.90;;;;;;4973680;28;20372;-52
2021/05/05 01:17:54;;;;;;;3.90;1.10;;;7.60;99.90;;;;;;4972776;28;20470;-53
2021/05/05 01:20:21;;;;;;;3.90;1.10;;;7.60;99.90;;;;;;4973886;28;20428;-51
2021/05/05 01:22:47;;;;;;;5.20;1.30;;;7.70;99.90;;;;;;4972854;28;20408;-52
2021/05/05 01:25:14;;;;;;;5.55;1.50;;;7.90;99.90;;;;;;4973708;28;20380;-51
2021/05/05 01:27:41;;;;;;;4.10;1.20;;;7.70;99.90;;;;;;4973257;28;20775;-51
2021/05/05 01:30:09;;;;;;;6.05;1.30;;;7.70;99.90;;;;;;4972856;28;20392;-52
2021/05/05 01:32:36;;;;;;;6.40;1.52;;;7.80;99.90;;;;;;4973567;28;20403;-51
2021/05/05 01:35:03;;;;;;;4.07;1.25;;;7.80;99.90;;;;;;4971597;28;20388;-51
2021/05/05 01:37:29;;;;;;;3.17;1.00;;;7.90;99.90;;;;;;4973401;28;20408;-51
2021/05/05 01:39:55;;;;;;;4.20;1.40;;;7.90;99.90;;;;;;4972456;28;20454;-51
2021/05/05 01:42:20;;;;;;;5.07;1.40;;;7.90;99.90;;;;;;4973121;28;20478;-51
2021/05/05 01:44:46;;;;;;;3.60;1.08;;;7.90;99.90;;;;;;4972608;28;20424;-56
2021/05/05 01:47:13;;;;;;;3.50;1.10;;;7.90;99.90;;;;;;4973163;28;21013;-51
2021/05/05 01:49:45;;;;;;;4.43;1.10;;;7.90;99.90;;;;;;4973274;28;20392;-51
2021/05/05 01:52:11;;;;;;;4.57;1.20;;;7.80;99.90;;;;;;4972596;28;20475;-52
2021/05/05 01:54:38;;;;;;;5.97;1.60;;;7.80;99.90;;;;;;4972900;28;20814;-51
2021/05/05 01:57:28;;;;;;;4.75;1.25;;;7.70;99.90;;;;;;4972090;28;20412;-54
2021/05/05 01:59:55;;;;;;;6.00;1.23;;;7.70;99.90;;;;;;4972483;28;20416;-51
2021/05/05 02:02:21;;;;;;;4.10;1.30;;;7.70;99.90;;;;;;4973162;28;20463;-51
2021/05/05 02:04:47;;;;;;;4.30;1.10;;;7.70;99.90;;;;;;4972227;28;20414;-57
2021/05/05 02:07:12;;;;;;;4.15;1.30;;;7.80;99.90;;;;;;4972849;28;21068;-51
2021/05/05 02:09:39;;;;;;;5.03;1.37;;;7.70;99.90;;;;;;4972744;28;20384;-51
2021/05/05 02:12:05;;;;;;;4.60;1.30;;;7.70;99.90;;;;;;4971943;28;20427;-51
2021/05/05 02:14:31;;;;;;;5.77;1.40;;;7.80;99.90;;;;;;4972575;28;20424;-51
2021/05/05 02:17:00;;;;;;;4.88;1.20;;;7.90;99.90;;;;;;4972065;28;20923;-52
2021/05/05 02:19:27;;;;;;;5.60;1.20;;;7.90;99.90;;;;;;4972595;28;20432;-51
2021/05/05 02:21:53;;;;;;;3.47;1.15;;;8.00;99.90;;;;;;4971505;28;20756;-51
2021/05/05 02:24:18;;;;;;;5.00;1.20;;;8.00;99.90;;;;;;4972649;28;20387;-52
2021/05/05 02:26:44;;;;;;;5.40;1.20;;;8.00;99.90;;;;;;4972013;28;20392;-57
2021/05/05 02:29:10;;;;;;;3.53;1.20;;;8.00;99.90;;;;;;4971909;28;20475;-51
2021/05/05 02:31:37;;;;;;;3.47;1.10;;;8.10;99.90;;;;;;4972644;28;20450;-51
2021/05/05 02:34:03;;;;;;;6.53;1.30;;;8.10;99.90;;;;;;4971365;28;20738;-51
2021/05/05 02:36:31;;;;;;;6.80;1.50;;;8.10;99.90;;;;;;4972227;28;20415;-52
2021/05/05 02:38:57;;;;;;;4.40;1.10;;;8.10;99.90;;;;;;4971269;28;20389;-51
2021/05/05 02:41:23;;;;;;;3.47;1.00;;;8.00;99.90;;;;;;4972157;28;20385;-51
2021/05/05 02:43:49;;;;;;;4.18;1.10;;;7.90;99.90;;;;;;4971526;28;20394;-51
2021/05/05 02:46:15;;;;;;;3.47;1.30;;;7.80;99.90;;;;;;4971868;28;20512;-51
2021/05/05 02:48:41;;;;;;;5.90;1.60;;;7.90;99.90;;;;;;4971887;28;20486;-51
2021/05/05 02:51:06;;;;;;;3.90;1.27;;;7.90;99.90;;;;;;4971014;28;20388;-51
2021/05/05 02:53:32;;;;;;;3.85;1.30;;;7.70;99.90;;;;;;4971956;28;20379;-51
2021/05/05 02:55:58;;;;;;;4.77;1.40;;;7.90;99.90;;;;;;4971053;28;20420;-52
2021/05/05 02:58:23;;;;;;;5.03;1.38;;;7.90;99.90;;;;;;4971593;28;20946;-51
2021/05/05 03:00:50;;;;;;;3.23;1.30;;;7.80;99.90;;;;;;4971231;28;20426;-52
2021/05/05 03:03:18;;;;;;;5.20;1.40;;;7.80;99.90;;;;;;4971937;28;20392;-51
2021/05/05 03:05:43;;;;;;;5.13;1.58;;;7.60;99.90;;;;;;4971775;28;20475;-51
2021/05/05 03:08:09;;;;;;;4.55;1.20;;;7.70;99.90;;;;;;4970855;28;20486;-51
2021/05/05 03:10:35;;;;;;;8.20;1.40;;;7.60;99.90;;;;;;4954451;28;20451;-52
2021/05/05 03:13:01;;;;;;;4.33;1.57;;;7.50;99.90;;;;;;4970811;28;20483;-51
2021/05/05 03:15:26;;;;;;;4.90;1.40;;;7.50;99.90;;;;;;4971600;28;20464;-51
2021/05/05 03:17:53;;;;;;;4.53;1.50;;;7.50;99.90;;;;;;4953903;28;20395;-51
2021/05/05 03:20:19;;;;;;;4.60;1.60;;;7.70;99.90;;;;;;4971593;28;20388;-52
2021/05/05 03:22:44;;;;;;;5.73;1.57;;;7.60;99.90;;;;;;4971787;28;20451;-53
2021/05/05 03:25:10;;;;;;;6.43;2.50;;;7.70;99.90;;;;;;4970849;28;21034;-51
2021/05/05 03:27:36;;;;;;;6.30;1.40;;;7.70;99.90;;;;;;4971249;28;20455;-53
2021/05/05 03:30:04;;;;;;;4.40;1.60;;;7.60;99.90;;;;;;4970715;28;20388;-52
2021/05/05 03:32:29;;;;;;;4.00;1.40;;;7.50;99.90;;;;;;4951813;29;20406;-52
2021/05/05 03:34:55;;;;;;;4.23;1.20;;;7.40;99.90;;;;;;4934213;29;20469;-54
2021/05/05 03:37:22;;;;;;;3.45;1.15;;;7.40;99.90;;;;;;4952163;29;20496;-51
2021/05/05 03:39:48;;;;;;;7.55;1.88;;;7.50;99.90;;;;;;4951578;29;20393;-56
2021/05/05 03:42:14;;;;;;;4.38;1.40;;;7.50;99.90;;;;;;4951538;29;20445;-52
2021/05/05 03:44:39;;;;;;;5.10;1.40;;;7.50;99.90;;;;;;4952212;29;20761;-52
2021/05/05 03:47:05;;;;;;;4.80;1.40;;;7.60;99.90;;;;;;4950936;29;20858;-51
2021/05/05 03:49:31;;;;;;;5.33;1.40;;;7.40;99.90;;;;;;4952208;29;20398;-51
2021/05/05 03:51:56;;;;;;;4.60;1.50;;;7.10;99.90;;;;;;4951009;29;20464;-51
2021/05/05 03:54:22;;;;;;;5.80;2.10;;;7.00;99.90;;;;;;4954443;28;20473;-51
2021/05/05 03:56:48;;;;;;;5.18;2.00;;;7.10;99.90;;;;;;4951546;28;20410;-57
2021/05/05 03:59:14;;;;;;;4.00;1.30;;;7.10;99.90;;;;;;4953510;29;20421;-51
2021/05/05 04:01:39;;;;;;;4.60;1.40;;;7.10;99.90;;;;;;4955828;29;20392;-51
2021/05/05 04:04:05;;;;;;;7.88;1.80;;;7.20;99.90;;;;;;4954966;29;20928;-51
2021/05/05 04:06:31;;;;;;;6.30;1.60;;;7.10;99.90;;;;;;4955896;29;20402;-51
2021/05/05 04:08:57;;;;;;;4.60;1.80;;;7.00;99.90;;;;;;4937513;28;20404;-51
2021/05/05 04:11:22;;;;;;;7.22;1.92;;;7.20;99.90;;;;;;4955849;29;20381;-51
2021/05/05 04:13:48;;;;;;;4.40;1.40;;;7.30;99.90;;;;;;4955333;29;20390;-57
2021/05/05 04:16:14;;;;;;;4.90;1.50;;;7.20;99.90;;;;;;4955404;29;20829;-51
2021/05/05 04:18:40;;;;;;;4.53;1.20;;;7.10;99.90;;;;;;4955569;28;20762;-51
2021/05/05 04:21:08;;;;;;;3.73;1.30;;;7.10;99.90;;;;;;4946961;28;20402;-51
2021/05/05 04:23:34;;;;;;;5.95;1.80;;;7.10;99.90;;;;;;4968965;28;20823;-51
2021/05/05 04:26:00;;;;;;;5.20;1.80;;;7.00;99.90;;;;;;4956611;28;20752;-51
2021/05/05 04:28:27;;;;;;;6.27;1.90;;;7.10;99.90;;;;;;4974531;28;20423;-51
2021/05/05 04:30:53;;;;;;;6.30;2.33;;;7.10;99.90;;;;;;4974034;28;20392;-51
2021/05/05 04:33:19;;;;;;;5.30;2.38;;;7.10;99.90;;;;;;4974535;28;20392;-51
2021/05/05 04:35:45;;;;;;;4.95;1.70;;;7.20;99.90;;;;;;4974385;28;20384;-51
2021/05/05 04:38:11;;;;;;;5.78;1.90;;;7.20;99.90;;;;;;4973666;28;20918;-51
2021/05/05 04:40:37;;;;;;;5.03;1.80;;;7.10;99.90;;;;;;4974650;28;20473;-51
2021/05/05 04:43:03;;;;;;;4.65;1.42;;;7.20;99.90;;;;;;4973536;28;20385;-51
2021/05/05 04:45:28;;;;;;;4.60;1.50;;;7.20;99.90;;;;;;4974515;28;20483;-52
2021/05/05 04:47:54;;;;;;;3.70;1.30;;;7.20;99.90;;;;;;4973698;28;20478;-52
2021/05/05 04:50:20;;;;;;;4.75;1.52;;;7.10;99.90;;;;;;4974276;28;20432;-51
2021/05/05 04:52:45;;;;;;;4.40;1.40;;;7.30;99.90;;;;;;4974527;28;20396;-51
2021/05/05 04:55:12;;;;;;;5.20;1.73;;;7.80;99.90;;;;;;4973389;28;20384;-52
2021/05/05 04:57:37;;;;;;;5.38;1.60;;;7.50;99.90;;;;;;4974001;28;20432;-52
2021/05/05 05:00:07;;;;;;;5.33;1.80;;;7.60;99.90;;;;;;4967432;28;20862;-52
2021/05/05 05:02:33;;;;;;;4.00;1.30;;;7.50;99.90;;;;;;4959864;28;20394;-51
2021/05/05 05:05:00;;;;;;;4.22;1.20;;;7.50;99.90;;;;;;4960723;28;20388;-53
2021/05/05 05:07:26;;;;;;;4.18;1.05;;;7.40;99.90;;;;;;4972947;28;20399;-52
2021/05/05 05:09:52;;;;;;;3.90;1.60;;;7.50;99.90;;;;;;4972892;28;20748;-52
2021/05/05 05:12:18;;;;;;;3.50;1.10;;;7.50;99.90;;;;;;4973611;28;20881;-51
2021/05/05 05:14:43;;;;;;;4.57;1.40;;;7.30;99.90;;;;;;4973680;28;20879;-51
2021/05/05 05:17:09;;;;;;;6.00;1.20;;;7.40;99.90;;;;;;4972807;28;20961;-51
2021/05/05 05:19:35;;;;;;;4.00;1.33;;;7.50;99.90;;;;;;4965219;28;20401;-51
2021/05/05 05:22:01;;;;;;;6.20;1.80;;;7.40;99.90;;;;;;4961546;28;20978;-52
2021/05/05 05:24:27;;;;;;;5.60;1.70;;;7.40;99.90;;;;;;4953407;29;20397;-51
2021/05/05 05:26:53;;;;;;;4.20;1.38;;;7.50;99.90;;;;;;4953384;28;20400;-51
2021/05/05 05:29:19;;;;;;;3.47;1.10;;;7.50;99.90;;;;;;4953915;29;20406;-51
2021/05/05 05:31:45;;;;;;;7.13;1.60;;;7.60;99.90;;;;;;4954449;29;20382;-51
2021/05/05 05:34:11;;;;;;;5.45;1.65;;;7.70;99.90;;;;;;4952004;29;21054;-52
2021/05/05 05:36:37;;;;;;;9.10;1.50;;;7.70;99.90;;;;;;4953992;28;20432;-52
2021/05/05 05:39:04;;;;;;;4.57;1.50;;;7.80;99.90;;;;;;4953486;29;20789;-51
2021/05/05 05:41:30;;;;;;;5.28;1.70;;;7.90;99.90;;;;;;4953780;28;20393;-51
2021/05/05 05:43:55;;;;;;;6.97;1.73;;;7.90;99.90;;;;;;4953563;29;20453;-52
2021/05/05 05:46:21;;;;;;;5.70;1.50;;;8.00;99.90;;;;;;4954130;29;20393;-52
2021/05/05 05:48:47;;;;;;;4.40;1.50;;;8.10;99.90;;;;;;4953374;29;20427;-51
2021/05/05 05:51:13;;;;;;;5.30;1.77;;;8.10;99.90;;;;;;4953263;29;20386;-52
2021/05/05 05:53:38;;;;;;;4.17;2.10;;;8.20;99.90;;;;;;4961411;28;20400;-52
2021/05/05 05:56:05;;;;;;;5.00;1.70;;;8.30;99.90;;;;;;4963628;28;20456;-51
2021/05/05 05:58:30;;;;;;;4.78;1.60;;;8.20;99.90;;;;;;4958273;28;20409;-53
2021/05/05 06:00:56;;;;;;;7.30;1.60;;;8.10;99.90;;;;;;4952881;29;20848;-51
2021/05/05 06:03:21;;;;;;;4.65;1.27;;;8.10;99.90;;;;;;4971485;28;20403;-52
2021/05/05 06:05:47;;;;;;;7.37;2.30;;;8.10;99.90;;;;;;4955595;28;20395;-52
2021/05/05 06:08:14;;;;;;;5.40;2.00;;;8.10;99.90;;;;;;4971384;28;20463;-51
2021/05/05 06:10:39;;;;;;;5.50;1.70;;;8.20;99.90;;;;;;4963892;28;20394;-51
2021/05/05 06:13:05;;;;;;;4.15;1.70;;;8.20;99.90;;;;;;4952319;29;20948;-52
2021/05/05 06:15:31;;;;;;;6.53;1.53;;;8.30;99.90;;;;;;4953183;29;20390;-52
2021/05/05 06:17:57;;;;;;;5.63;1.92;;;8.30;99.90;;;;;;4951865;29;20841;-52
2021/05/05 06:20:23;;;;;;;4.72;1.92;;;8.70;99.90;;;;;;4952397;28;20386;-49
2021/05/05 06:22:49;;;;;;;4.82;1.67;;;9.10;99.90;;;;;;4952644;29;20474;-54
2021/05/05 06:25:15;;;;;;;5.10;1.30;;;10.00;99.90;;;;;;4952190;29;20933;-50
2021/05/05 06:27:41;;;;;;;7.15;1.35;;;10.90;99.90;;;;;;4960397;28;20420;-51
2021/05/05 06:30:09;;;;;;;4.05;1.20;;;11.60;99.90;;;;;;4971712;28;20407;-52
2021/05/05 06:32:35;;;;;;;5.40;1.30;;;13.00;99.90;;;;;;4972017;28;20530;-51
2021/05/05 06:35:00;;;;;;;6.28;1.63;;;12.60;99.90;;;;;;4971326;28;20392;-52
2021/05/05 06:37:26;;;;;;;5.70;1.70;;;11.60;99.90;;;;;;4971957;28;20827;-52
2021/05/05 06:39:53;;;;;;;8.87;1.87;;;11.50;99.90;;;;;;4971209;28;20391;-58
2021/05/05 06:42:20;;;;;;;6.10;1.55;;;12.00;99.90;;;;;;4971614;28;20380;-53
2021/05/05 06:44:45;;;;;;;5.32;1.90;;;12.50;99.90;;;;;;4971516;28;20392;-52
2021/05/05 06:47:11;;;;;;;9.80;1.90;;;11.90;99.90;;;;;;4971139;28;20410;-50
2021/05/05 06:49:37;;;;;;;6.38;1.73;;;11.30;99.90;;;;;;4971807;28;20384;-50
2021/05/05 06:52:03;;;;;;;6.50;1.60;;;10.30;99.90;;;;;;4970316;28;20442;-50
2021/05/05 06:54:29;;;;;;;6.13;1.97;;;9.40;99.90;;;;;;4971649;28;20380;-52
2021/05/05 06:56:55;;;;;;;5.70;2.03;;;9.30;99.90;;;;;;4970576;28;20412;-50
2021/05/05 06:59:21;;;;;;;5.20;1.85;;;9.90;99.90;;;;;;4971396;28;20965;-50
2021/05/05 07:01:46;;;;;;;9.70;1.83;;;10.60;99.90;;;;;;4963263;28;20405;-50
2021/05/05 07:04:12;;;;;;;8.50;1.90;;;11.20;99.90;;;;;;4951326;29;20588;-52
2021/05/05 07:06:38;;;;;;;6.90;2.20;;;12.10;99.90;;;;;;4951811;29;20477;-53
2021/05/05 07:09:05;;;;;;;5.80;1.60;;;12.20;99.90;;;;;;4951060;29;20397;-53
2021/05/05 07:11:32;;;;;;;6.38;1.70;;;12.40;99.90;;;;;;4952140;29;20489;-53
2021/05/05 07:13:58;;;;;;;7.50;2.08;;;12.60;99.90;;;;;;4950911;29;20757;-53
2021/05/05 07:16:24;;;;;;;12.20;1.83;;;12.20;99.90;;;;;;4952216;29;20410;-51
2021/05/05 07:18:50;;;;;;;8.32;1.90;;;11.80;99.90;;;;;;4951681;29;20389;-53
2021/05/05 07:21:15;;;;;;;8.57;1.60;;;11.20;99.90;;;;;;4950874;29;20862;-50
2021/05/05 07:23:43;;;;;;;9.00;2.60;;;10.90;99.90;;;;;;4951606;29;20812;-52
2021/05/05 07:26:09;;;;;;;5.87;1.50;;;10.80;99.90;;;;;;4950953;29;20390;-51
2021/05/05 07:28:36;;;;;;;6.75;1.60;;;11.70;99.90;;;;;;4951759;29;20424;-51
2021/05/05 07:31:02;;;;;;;5.80;1.70;;;11.90;99.90;;;;;;4950602;29;20801;-52
2021/05/05 07:33:29;;;;;;;6.05;1.95;;;11.80;99.90;;;;;;4946865;28;20386;-51
2021/05/05 07:35:57;;;;;;;5.07;1.58;;;11.50;99.90;;;;;;4963034;28;20397;-54
2021/05/05 07:39:14;;;;;;;6.13;1.90;;;12.10;99.90;;;;;;4965515;28;20426;-54
2021/05/05 07:46:46;;;;;;;4.80;1.90;;;12.30;99.90;;;;;;4959486;28;20400;-51
2021/05/05 07:49:15;;;;;;;6.18;1.40;;;12.40;99.90;;;;;;4964224;28;20439;-51
2021/05/05 07:51:41;;;;;;;4.35;1.35;;;11.90;99.90;;;;;;4951354;28;20403;-50
2021/05/05 07:54:07;;;;;;;6.50;2.30;;;11.30;99.90;;;;;;4950373;29;20396;-51
2021/05/05 07:56:33;;;;;;;5.80;1.73;;;11.10;99.90;;;;;;4950727;29;20421;-51
2021/05/05 07:59:02;;;;;;;6.68;1.63;;;11.60;99.90;;;;;;4950355;29;20501;-50
2021/05/05 08:01:29;;;;;;;6.27;1.70;;;11.60;99.90;;;;;;4951165;29;20440;-52
2021/05/05 08:03:55;;;;;;;4.82;1.30;;;12.60;99.90;;;;;;4963273;28;20392;-55
2021/05/05 08:06:21;;;;;;;7.10;2.00;;;13.00;99.90;;;;;;4970513;28;20845;-52
2021/05/05 08:08:47;;;;;;;5.28;1.52;;;12.10;99.80;;;;;;4970141;28;20512;-52
2021/05/05 08:11:13;;;;;;;7.70;2.25;;;11.30;99.90;;;;;;4969287;28;20374;-52
2021/05/05 08:13:39;;;;;;;6.95;1.88;;;11.10;99.90;;;;;;4953212;28;20396;-51
2021/05/05 08:16:06;;;;;;;5.18;1.50;;;10.90;99.90;;;;;;4969563;28;20586;-52
2021/05/05 08:18:32;;;;;;;6.55;1.30;;;10.50;99.90;;;;;;4970841;28;20451;-51
2021/05/05 08:21:01;;;;;;;7.40;1.50;;;10.10;99.90;;;;;;4969649;28;20392;-52
2021/05/05 08:23:27;;;;;;;7.22;1.50;;;10.00;99.90;;;;;;4969332;28;20456;-52
2021/05/05 08:25:53;;;;;;;6.95;1.70;;;11.80;99.90;;;;;;4957524;28;20390;-57
2021/05/05 08:28:18;;;;;;;4.80;1.30;;;12.90;99.20;;;;;;4950522;29;20472;-52
2021/05/05 08:30:44;;;;;;;7.70;1.93;;;12.50;99.20;;;;;;4950337;28;20782;-51
2021/05/05 08:33:10;;;;;;;5.55;1.60;;;11.50;98.00;;;;;;4949377;28;20409;-52
2021/05/05 08:35:37;;;;;;;7.00;1.70;;;11.70;98.90;;;;;;4950799;29;20421;-53
2021/05/05 08:38:03;;;;;;;8.43;1.65;;;12.80;97.50;;;;;;4968627;28;20443;-52
2021/05/05 08:40:29;;;;;;;6.40;1.50;;;13.30;95.30;;;;;;4969931;28;20380;-53
2021/05/05 08:42:55;;;;;;;6.80;1.70;;;12.90;93.40;;;;;;4969999;28;20411;-57
2021/05/05 08:45:26;;;;;;;5.53;1.50;;;13.10;91.20;;;;;;4972925;28;20392;-52
2021/05/05 08:47:54;;;;;;;4.60;1.60;;;14.20;92.40;;;;;;4973485;28;20606;-56
2021/05/05 08:50:23;;;;;;;9.35;1.70;;;12.70;92.30;;;;;;4973293;28;20399;-51
2021/05/05 08:52:49;;;;;;;5.38;1.40;;;11.70;95.20;;;;;;4973161;28;20748;-51
2021/05/05 08:55:17;;;;;;;6.47;1.80;;;10.80;96.80;;;;;;4972456;28;20384;-51
2021/05/05 08:57:44;;;;;;;5.35;1.90;;;10.90;99.90;;;;;;4955796;28;20460;-53
2021/05/05 09:00:13;;;;;;;5.70;1.25;;;11.80;99.10;;;;;;4972365;28;20384;-54
2021/05/05 09:02:40;;;;;;;6.30;1.60;;;12.00;97.30;;;;;;4955342;28;20760;-52
2021/05/05 09:05:09;;;;;;;5.10;1.20;;;13.00;97.00;;;;;;4972256;28;20880;-51
2021/05/05 09:07:38;;;;;;;5.17;1.40;;;13.30;93.60;;;;;;4960175;28;20425;-51
2021/05/05 09:10:13;;;;;;;5.50;1.73;;;13.20;91.30;;;;;;4953341;29;20421;-52
2021/05/05 09:12:43;;;;;;;6.10;1.50;;;13.90;91.40;;;;;;4953173;28;20398;-51
2021/05/05 09:15:19;;;;;;;7.63;1.80;;;12.60;88.70;;;;;;4952859;29;20419;-52
2021/05/05 09:17:53;;;;;;;4.63;1.20;;;11.80;91.80;;;;;;4954390;29;20416;-51
2021/05/05 09:20:27;;;;;;;7.05;1.80;;;11.50;94.50;;;;;;4966431;28;20400;-51
2021/05/05 09:22:55;;;;;;;6.90;1.60;;;11.40;95.00;;;;;;4972781;28;20427;-56
2021/05/05 09:25:49;;;;;;;4.35;1.63;;;12.20;96.70;;;;;;4972299;28;20421;-51
2021/05/05 09:28:21;;;;;;;5.87;1.50;;;14.00;95.80;;;;;;4971646;28;20415;-51
2021/05/05 09:30:48;;;;;;;5.55;1.27;;;14.10;92.90;;;;;;4973170;28;20911;-52
2021/05/05 09:33:25;;;;;;;4.50;1.50;;;14.60;93.00;;;;;;4964566;28;20394;-52
2021/05/05 09:35:56;;;;;;;4.80;1.55;;;14.90;90.80;;;;;;4954349;28;20425;-52
2021/05/05 09:38:37;;;;;;;4.70;1.52;;;14.20;89.00;;;;;;4955589;28;20447;-51
2021/05/05 09:41:02;;;;;;;6.43;1.70;;;14.50;89.60;;;;;;4971967;28;20396;-52
2021/05/05 09:43:35;;;;;;;5.20;1.80;;;14.40;86.60;;;;;;4972279;28;20906;-51
2021/05/05 09:46:00;;;;;;;6.65;1.70;;;13.40;88.80;;;;;;4972020;28;20426;-52
2021/05/05 09:48:26;;;;;;;6.10;1.60;;;14.10;90.30;;;;;;4972779;28;20420;-52
2021/05/05 09:51:00;;;;;;;6.72;1.80;;;14.10;85.00;;;;;;4972360;28;20461;-57
2021/05/05 09:53:32;;;;;;;4.63;1.60;;;13.50;86.00;;;;;;4972865;28;20817;-52
2021/05/05 09:55:58;;;;;;;5.35;1.27;;;13.40;80.30;;;;;;4942876;28;20482;-53
2021/05/05 09:58:37;;;;;;;3.80;1.20;;;13.20;81.60;;;;;;4952968;29;20510;-53
2021/05/05 10:01:09;;;;;;;6.18;2.20;;;11.90;81.40;;;;;;4954716;28;20478;-52
2021/05/05 10:03:47;;;;;;;6.97;1.60;;;12.30;87.50;;;;;;4953076;28;20404;-52
2021/05/05 10:06:27;;;;;;;5.60;1.67;;;13.20;88.20;;;;;;4956338;28;20476;-52
2021/05/05 10:08:54;;;;;;;6.88;1.50;;;14.20;85.80;;;;;;4972385;28;20449;-57
2021/05/05 10:11:22;;;;;;;5.45;1.20;;;14.20;78.20;;;;;;4971429;28;20852;-53
2021/05/05 10:13:53;;;;;;;5.88;1.45;;;13.30;78.90;;;;;;4971663;28;20384;-52
2021/05/05 10:16:21;;;;;;;7.30;1.80;;;12.70;81.70;;;;;;4971405;28;20423;-53
2021/05/05 10:18:48;;;;;;;5.20;1.17;;;13.20;81.80;;;;;;4972132;28;20420;-52
2021/05/05 10:21:14;;;;;;;5.57;1.90;;;12.70;81.40;;;;;;4970653;28;20380;-52
2021/05/05 10:23:42;;;;;;;6.55;1.50;;;12.40;83.80;;;;;;4971964;28;20397;-53
2021/05/05 10:26:08;;;;;;;5.90;1.75;;;12.50;85.60;;;;;;4971113;28;20389;-52
2021/05/05 10:28:34;;;;;;;7.47;1.52;;;12.30;84.40;;;;;;4971353;28;20458;-52
2021/05/05 10:31:00;;;;;;;6.53;1.60;;;11.90;83.10;;;;;;4971022;28;20443;-52
2021/05/05 10:33:31;;;;;;;4.60;1.50;;;11.90;85.10;;;;;;4971175;28;20419;-52
2021/05/05 10:36:30;;;;;;;6.32;1.30;;;11.70;84.90;;;;;;4970852;28;20400;-56
2021/05/05 10:38:57;;;;;;;5.10;1.40;;;11.40;84.70;;;;;;4970941;28;20658;-56
2021/05/05 10:41:23;;;;;;;8.77;1.02;;;10.70;95.40;;;;;;4971357;28;20380;-51
2021/05/05 10:43:56;;;;;;;3.28;0.52;;;8.40;99.90;;;;;;4971667;28;20431;-51
2021/05/05 10:46:28;;;;;;;4.00;1.17;;;7.20;99.90;;;;;;4954393;28;20404;-51
2021/05/05 10:49:13;;;;;;;4.50;1.20;;;6.20;99.90;;;;;;4964052;28;20401;-56
2021/05/05 10:51:45;;;;;;;3.10;0.70;;;5.50;99.90;;;;;;4951851;29;20402;-51
2021/05/05 10:54:17;;;;;;;6.25;0.80;;;5.40;99.90;;;;;;4951376;29;20405;-51
2021/05/05 10:57:04;;;;;;;3.60;0.80;;;5.30;99.90;;;;;;4950598;29;20410;-51
2021/05/05 10:59:29;;;;;;;4.30;0.90;;;5.20;99.90;;;;;;4951435;29;20737;-51
2021/05/05 11:01:55;;;;;;;4.43;1.13;;;5.30;99.90;;;;;;4943335;28;20404;-56
2021/05/05 11:04:21;;;;;;;3.30;1.00;;;5.20;99.90;;;;;;4971344;28;20448;-51
2021/05/05 11:06:53;;;;;;;3.50;0.70;;;5.40;99.90;;;;;;4970706;28;20823;-51
2021/05/05 11:09:19;;;;;;;3.88;1.00;;;5.50;99.90;;;;;;4970565;28;20384;-51
2021/05/05 11:11:52;;;;;;;3.75;0.98;;;5.60;99.90;;;;;;4970895;28;20396;-51
2021/05/05 11:14:24;;;;;;;2.97;0.80;;;5.70;99.90;;;;;;4970573;28;20391;-52
2021/05/05 11:16:59;;;;;;;2.97;0.70;;;5.70;99.90;;;;;;4970947;28;20416;-50
2021/05/05 11:19:52;;;;;;;3.20;0.80;;;5.70;99.90;;;;;;4954208;28;20396;-52
2021/05/05 11:22:18;;;;;;;4.28;1.00;;;6.00;99.90;;;;;;4967720;28;21195;-51
2021/05/05 11:24:44;;;;;;;4.10;1.07;;;6.20;99.90;;;;;;4971090;28;20419;-57
2021/05/05 11:27:12;;;;;;;4.40;1.20;;;6.70;99.90;;;;;;4969870;28;20396;-51
2021/05/05 11:29:39;;;;;;;5.03;1.00;;;6.80;99.90;;;;;;4971088;28;20409;-51
2021/05/05 11:32:09;;;;;;;4.18;1.20;;;7.40;99.90;;;;;;4970259;28;20487;-53
2021/05/05 11:34:37;;;;;;;3.40;0.80;;;8.20;99.90;;;;;;4965449;28;20396;-52
2021/05/05 11:37:17;;;;;;;4.60;1.02;;;8.50;99.90;;;;;;4963660;28;20404;-52
2021/05/05 11:39:45;;;;;;;4.72;1.25;;;8.60;99.90;;;;;;4969747;28;20392;-51
2021/05/05 11:42:17;;;;;;;4.50;1.10;;;8.80;99.90;;;;;;4969597;28;20483;-52
2021/05/05 11:44:43;;;;;;;3.70;1.00;;;9.30;99.90;;;;;;4970392;28;20396;-52
2021/05/05 11:47:10;;;;;;;3.60;1.10;;;9.40;99.90;;;;;;4969361;28;20396;-53
2021/05/05 11:49:57;;;;;;;3.70;1.10;;;9.40;99.90;;;;;;4970922;28;20400;-52
2021/05/05 11:52:31;;;;;;;3.70;1.20;;;9.70;99.90;;;;;;4970219;28;20406;-53
2021/05/05 11:55:04;;;;;;;3.60;1.02;;;10.00;99.90;;;;;;4970054;28;21177;-56
2021/05/05 11:57:32;;;;;;;4.78;1.50;;;10.10;99.90;;;;;;4970495;28;20511;-53
2021/05/05 12:00:18;;;;;;;4.68;1.17;;;10.10;99.90;;;;;;4969904;28;20428;-56
2021/05/05 12:02:52;;;;;;;4.07;1.25;;;10.40;99.90;;;;;;4953875;28;20999;-51
2021/05/05 12:05:24;;;;;;;5.50;1.80;;;10.20;99.90;;;;;;4963432;28;20392;-52
2021/05/05 12:08:20;;;;;;;4.65;1.48;;;10.30;99.90;;;;;;4969018;28;20391;-52
2021/05/05 12:10:55;;;;;;;6.00;1.70;;;10.60;99.90;;;;;;4925852;29;20438;-52
2021/05/05 12:13:24;;;;;;;6.50;1.70;;;10.80;99.90;;;;;;4950358;29;20394;-51
2021/05/05 12:16:09;;;;;;;3.72;1.13;;;10.60;99.90;;;;;;4951153;29;20385;-51
2021/05/05 12:18:46;;;;;;;5.10;1.60;;;10.70;99.90;;;;;;4951982;28;20402;-53
2021/05/05 12:21:16;;;;;;;4.45;1.30;;;10.90;99.90;;;;;;4953704;29;20397;-52
2021/05/05 12:23:47;;;;;;;5.90;1.40;;;11.20;99.90;;;;;;4955123;29;20411;-51
2021/05/05 12:26:33;;;;;;;6.30;1.30;;;11.70;99.90;;;;;;4936499;29;20414;-51
2021/05/05 12:29:03;;;;;;;4.18;1.20;;;11.70;99.90;;;;;;4954026;29;20488;-56
2021/05/05 12:31:31;;;;;;;5.13;1.20;;;11.50;99.90;;;;;;4954266;29;20402;-51
2021/05/05 12:33:58;;;;;;;4.53;1.30;;;11.40;99.90;;;;;;4958430;28;20483;-55
2021/05/05 12:36:34;;;;;;;6.82;1.52;;;11.40;99.90;;;;;;4955627;28;20899;-51
2021/05/05 12:39:10;;;;;;;5.23;1.30;;;11.30;99.90;;;;;;4972449;28;20471;-56
2021/05/05 12:41:45;;;;;;;4.40;1.30;;;10.90;99.90;;;;;;4972916;28;20484;-51
2021/05/05 12:44:13;;;;;;;4.97;1.20;;;11.00;99.90;;;;;;4961739;28;20393;-51
2021/05/05 12:46:57;;;;;;;4.80;1.20;;;10.80;99.90;;;;;;4964431;28;20435;-52
2021/05/05 12:49:37;;;;;;;4.40;1.20;;;10.90;99.90;;;;;;4962581;28;20446;-51
2021/05/05 12:52:05;;;;;;;3.65;0.82;;;10.70;99.90;;;;;;4966375;28;20392;-52
2021/05/05 12:54:33;;;;;;;3.90;0.70;;;10.50;99.90;;;;;;4968300;28;20404;-51
2021/05/05 12:57:01;;;;;;;4.10;0.80;;;10.50;99.90;;;;;;4962025;28;20474;-56
2021/05/05 12:59:30;;;;;;;4.10;1.10;;;10.40;99.90;;;;;;4963428;28;20406;-53
2021/05/05 13:02:20;;;;;;;3.90;1.00;;;10.40;99.90;;;;;;4964288;28;20400;-56